sensor_id;sensor_type;location;lat;lon;timestamp;P1;durP1;ratioP1;P2;durP2;ratioP2
53263;SDS011;39153;52.680;6.172;2023-11-21T00:00:18;103.00;;;21.15;;
53263;SDS011;39153;52.680;6.172;2023-11-21T00:02:44;86.00;;;19.67;;
53263;SDS011;39153;52.680;6.172;2023-11-21T00:05:11;90.93;;;19.83;;
53263;SDS011;39153;52.680;6.172;2023-11-21T00:07:40;90.93;;;20.15;;
53263;SDS011;39153;52.680;6.172;2023-11-21T00:10:06;85.38;;;36.05;;
53263;SDS011;39153;52.680;6.172;2023-11-21T00:12:36;86.97;;;20.88;;
53263;SDS011;39153;52.680;6.172;2023-11-21T00:15:02;93.03;;;20.85;;
53263;SDS011;39153;52.680;6.172;2023-11-21T00:17:30;89.72;;;20.40;;
53263;SDS011;39153;52.680;6.172;2023-11-21T00:19:56;85.88;;;19.95;;
53263;SDS011;39153;52.680;6.172;2023-11-21T00:22:22;96.18;;;21.75;;
53263;SDS011;39153;52.680;6.172;2023-11-21T00:24:47;110.82;;;38.88;;
53263;SDS011;39153;52.680;6.172;2023-11-21T00:27:13;89.45;;;19.95;;
53263;SDS011;39153;52.680;6.172;2023-11-21T00:29:39;86.13;;;19.65;;
53263;SDS011;39153;52.680;6.172;2023-11-21T00:32:05;100.63;;;19.15;;
53263;SDS011;39153;52.680;6.172;2023-11-21T00:34:31;76.05;;;18.98;;
53263;SDS011;39153;52.680;6.172;2023-11-21T00:36:58;80.50;;;20.08;;
53263;SDS011;39153;52.680;6.172;2023-11-21T00:39:24;79.68;;;19.92;;
53263;SDS011;39153;52.680;6.172;2023-11-21T00:41:51;82.72;;;20.23;;
53263;SDS011;39153;52.680;6.172;2023-11-21T00:44:16;98.53;;;20.95;;
53263;SDS011;39153;52.680;6.172;2023-11-21T00:46:42;90.55;;;21.90;;
53263;SDS011;39153;52.680;6.172;2023-11-21T00:49:08;84.25;;;21.67;;
53263;SDS011;39153;52.680;6.172;2023-11-21T00:51:34;81.20;;;21.05;;
53263;SDS011;39153;52.680;6.172;2023-11-21T00:54:00;96.15;;;21.92;;
53263;SDS011;39153;52.680;6.172;2023-11-21T00:56:26;88.30;;;20.75;;
53263;SDS011;39153;52.680;6.172;2023-11-21T00:58:51;84.88;;;20.70;;
53263;SDS011;39153;52.680;6.172;2023-11-21T01:01:18;91.00;;;21.10;;
53263;SDS011;39153;52.680;6.172;2023-11-21T01:03:47;79.85;;;19.92;;
53263;SDS011;39153;52.680;6.172;2023-11-21T01:06:14;82.80;;;22.10;;
53263;SDS011;39153;52.680;6.172;2023-11-21T01:08:40;91.50;;;35.78;;
53263;SDS011;39153;52.680;6.172;2023-11-21T01:11:06;87.47;;;21.00;;
53263;SDS011;39153;52.680;6.172;2023-11-21T01:13:37;84.32;;;20.27;;
53263;SDS011;39153;52.680;6.172;2023-11-21T01:16:04;101.13;;;20.70;;
53263;SDS011;39153;52.680;6.172;2023-11-21T01:18:31;78.22;;;21.13;;
53263;SDS011;39153;52.680;6.172;2023-11-21T01:20:57;83.97;;;21.25;;
53263;SDS011;39153;52.680;6.172;2023-11-21T01:23:24;83.43;;;22.17;;
53263;SDS011;39153;52.680;6.172;2023-11-21T01:25:50;85.75;;;20.38;;
53263;SDS011;39153;52.680;6.172;2023-11-21T01:28:16;79.13;;;19.85;;
53263;SDS011;39153;52.680;6.172;2023-11-21T01:30:42;72.80;;;20.67;;
53263;SDS011;39153;52.680;6.172;2023-11-21T01:33:09;81.28;;;19.88;;
53263;SDS011;39153;52.680;6.172;2023-11-21T01:35:35;93.07;;;35.95;;
53263;SDS011;39153;52.680;6.172;2023-11-21T01:38:01;76.47;;;19.90;;
53263;SDS011;39153;52.680;6.172;2023-11-21T01:40:26;78.55;;;20.52;;
53263;SDS011;39153;52.680;6.172;2023-11-21T01:42:53;68.38;;;19.35;;
53263;SDS011;39153;52.680;6.172;2023-11-21T01:45:19;77.95;;;20.20;;
53263;SDS011;39153;52.680;6.172;2023-11-21T01:47:45;76.22;;;19.83;;
53263;SDS011;39153;52.680;6.172;2023-11-21T01:50:13;84.53;;;21.10;;
53263;SDS011;39153;52.680;6.172;2023-11-21T01:52:44;89.65;;;21.63;;
53263;SDS011;39153;52.680;6.172;2023-11-21T01:55:10;80.82;;;18.80;;
53263;SDS011;39153;52.680;6.172;2023-11-21T01:57:37;72.07;;;18.02;;
53263;SDS011;39153;52.680;6.172;2023-11-21T02:00:04;70.75;;;19.48;;
53263;SDS011;39153;52.680;6.172;2023-11-21T02:02:56;62.95;;;18.88;;
53263;SDS011;39153;52.680;6.172;2023-11-21T02:05:23;67.28;;;18.33;;
53263;SDS011;39153;52.680;6.172;2023-11-21T02:07:49;64.28;;;19.27;;
53263;SDS011;39153;52.680;6.172;2023-11-21T02:10:17;83.90;;;20.77;;
53263;SDS011;39153;52.680;6.172;2023-11-21T02:12:47;73.13;;;18.95;;
53263;SDS011;39153;52.680;6.172;2023-11-21T02:15:15;80.38;;;33.88;;
53263;SDS011;39153;52.680;6.172;2023-11-21T02:17:48;71.25;;;17.98;;
53263;SDS011;39153;52.680;6.172;2023-11-21T02:20:16;81.07;;;18.92;;
53263;SDS011;39153;52.680;6.172;2023-11-21T02:22:56;85.25;;;20.25;;
53263;SDS011;39153;52.680;6.172;2023-11-21T02:25:32;83.95;;;33.65;;
53263;SDS011;39153;52.680;6.172;2023-11-21T02:28:01;84.05;;;20.73;;
53263;SDS011;39153;52.680;6.172;2023-11-21T02:30:28;80.75;;;19.70;;
53263;SDS011;39153;52.680;6.172;2023-11-21T02:32:57;86.80;;;20.08;;
53263;SDS011;39153;52.680;6.172;2023-11-21T02:35:22;86.93;;;21.17;;
53263;SDS011;39153;52.680;6.172;2023-11-21T02:37:50;76.20;;;20.98;;
53263;SDS011;39153;52.680;6.172;2023-11-21T02:40:17;76.03;;;20.48;;
53263;SDS011;39153;52.680;6.172;2023-11-21T02:42:49;82.32;;;21.95;;
53263;SDS011;39153;52.680;6.172;2023-11-21T02:45:16;81.18;;;22.48;;
53263;SDS011;39153;52.680;6.172;2023-11-21T02:47:42;98.75;;;21.30;;
53263;SDS011;39153;52.680;6.172;2023-11-21T02:50:09;90.53;;;23.10;;
53263;SDS011;39153;52.680;6.172;2023-11-21T02:52:35;87.50;;;23.00;;
53263;SDS011;39153;52.680;6.172;2023-11-21T02:55:02;101.43;;;23.80;;
53263;SDS011;39153;52.680;6.172;2023-11-21T02:57:28;83.72;;;24.20;;
53263;SDS011;39153;52.680;6.172;2023-11-21T02:59:54;94.60;;;41.15;;
53263;SDS011;39153;52.680;6.172;2023-11-21T03:02:20;88.50;;;22.75;;
53263;SDS011;39153;52.680;6.172;2023-11-21T03:04:46;96.78;;;24.27;;
53263;SDS011;39153;52.680;6.172;2023-11-21T03:07:14;91.00;;;23.00;;
53263;SDS011;39153;52.680;6.172;2023-11-21T03:09:40;99.00;;;25.90;;
53263;SDS011;39153;52.680;6.172;2023-11-21T03:12:06;99.15;;;24.40;;
53263;SDS011;39153;52.680;6.172;2023-11-21T03:14:33;89.30;;;25.75;;
53263;SDS011;39153;52.680;6.172;2023-11-21T03:16:59;103.38;;;26.65;;
53263;SDS011;39153;52.680;6.172;2023-11-21T03:19:25;113.53;;;25.95;;
53263;SDS011;39153;52.680;6.172;2023-11-21T03:21:50;119.45;;;49.45;;
53263;SDS011;39153;52.680;6.172;2023-11-21T03:24:18;139.95;;;52.58;;
53263;SDS011;39153;52.680;6.172;2023-11-21T03:26:45;93.30;;;24.83;;
53263;SDS011;39153;52.680;6.172;2023-11-21T03:29:15;99.35;;;26.42;;
53263;SDS011;39153;52.680;6.172;2023-11-21T03:31:41;108.47;;;26.30;;
53263;SDS011;39153;52.680;6.172;2023-11-21T03:34:09;126.90;;;48.22;;
53263;SDS011;39153;52.680;6.172;2023-11-21T03:36:41;103.28;;;27.73;;
53263;SDS011;39153;52.680;6.172;2023-11-21T03:39:07;110.20;;;27.23;;
53263;SDS011;39153;52.680;6.172;2023-11-21T03:41:32;100.85;;;26.38;;
53263;SDS011;39153;52.680;6.172;2023-11-21T03:43:59;112.68;;;27.88;;
53263;SDS011;39153;52.680;6.172;2023-11-21T03:46:25;121.43;;;48.97;;
53263;SDS011;39153;52.680;6.172;2023-11-21T03:48:50;97.50;;;27.70;;
53263;SDS011;39153;52.680;6.172;2023-11-21T03:51:16;109.30;;;27.13;;
53263;SDS011;39153;52.680;6.172;2023-11-21T03:53:42;115.43;;;29.35;;
53263;SDS011;39153;52.680;6.172;2023-11-21T03:56:07;123.07;;;26.77;;
53263;SDS011;39153;52.680;6.172;2023-11-21T03:58:33;118.03;;;28.77;;
53263;SDS011;39153;52.680;6.172;2023-11-21T04:00:59;113.15;;;28.00;;
53263;SDS011;39153;52.680;6.172;2023-11-21T04:03:25;124.55;;;28.70;;
53263;SDS011;39153;52.680;6.172;2023-11-21T04:05:50;99.60;;;27.77;;
53263;SDS011;39153;52.680;6.172;2023-11-21T04:08:16;112.78;;;28.45;;
53263;SDS011;39153;52.680;6.172;2023-11-21T04:10:42;105.57;;;27.25;;
53263;SDS011;39153;52.680;6.172;2023-11-21T04:13:07;109.70;;;28.23;;
53263;SDS011;39153;52.680;6.172;2023-11-21T04:15:33;111.45;;;27.85;;
53263;SDS011;39153;52.680;6.172;2023-11-21T04:17:59;136.32;;;29.67;;
53263;SDS011;39153;52.680;6.172;2023-11-21T04:20:24;109.03;;;27.20;;
53263;SDS011;39153;52.680;6.172;2023-11-21T04:22:50;116.85;;;27.90;;
53263;SDS011;39153;52.680;6.172;2023-11-21T04:25:16;113.47;;;29.05;;
53263;SDS011;39153;52.680;6.172;2023-11-21T04:27:43;144.32;;;53.97;;
53263;SDS011;39153;52.680;6.172;2023-11-21T04:30:13;132.70;;;52.30;;
53263;SDS011;39153;52.680;6.172;2023-11-21T04:32:39;94.30;;;26.38;;
53263;SDS011;39153;52.680;6.172;2023-11-21T04:35:05;106.25;;;27.60;;
53263;SDS011;39153;52.680;6.172;2023-11-21T04:37:31;121.18;;;29.27;;
53263;SDS011;39153;52.680;6.172;2023-11-21T04:39:57;119.20;;;28.83;;
53263;SDS011;39153;52.680;6.172;2023-11-21T04:42:22;111.28;;;28.30;;
53263;SDS011;39153;52.680;6.172;2023-11-21T04:44:48;136.18;;;30.20;;
53263;SDS011;39153;52.680;6.172;2023-11-21T04:47:14;136.52;;;30.48;;
53263;SDS011;39153;52.680;6.172;2023-11-21T04:49:41;119.60;;;30.95;;
53263;SDS011;39153;52.680;6.172;2023-11-21T04:52:08;136.23;;;30.45;;
53263;SDS011;39153;52.680;6.172;2023-11-21T04:54:35;116.18;;;29.13;;
53263;SDS011;39153;52.680;6.172;2023-11-21T04:57:01;128.45;;;29.05;;
53263;SDS011;39153;52.680;6.172;2023-11-21T04:59:26;158.20;;;31.67;;
53263;SDS011;39153;52.680;6.172;2023-11-21T05:01:52;143.18;;;31.48;;
53263;SDS011;39153;52.680;6.172;2023-11-21T05:04:19;126.93;;;30.38;;
53263;SDS011;39153;52.680;6.172;2023-11-21T05:06:46;133.15;;;30.33;;
53263;SDS011;39153;52.680;6.172;2023-11-21T05:09:13;149.18;;;31.52;;
53263;SDS011;39153;52.680;6.172;2023-11-21T05:11:38;118.80;;;29.42;;
53263;SDS011;39153;52.680;6.172;2023-11-21T05:14:05;123.75;;;30.08;;
53263;SDS011;39153;52.680;6.172;2023-11-21T05:16:31;141.30;;;31.52;;
53263;SDS011;39153;52.680;6.172;2023-11-21T05:18:58;160.77;;;32.25;;
53263;SDS011;39153;52.680;6.172;2023-11-21T05:21:26;143.20;;;30.58;;
53263;SDS011;39153;52.680;6.172;2023-11-21T05:23:52;132.18;;;30.25;;
53263;SDS011;39153;52.680;6.172;2023-11-21T05:26:18;167.32;;;31.40;;
53263;SDS011;39153;52.680;6.172;2023-11-21T05:28:43;138.82;;;31.08;;
53263;SDS011;39153;52.680;6.172;2023-11-21T05:31:09;114.13;;;28.52;;
53263;SDS011;39153;52.680;6.172;2023-11-21T05:33:36;109.30;;;28.67;;
53263;SDS011;39153;52.680;6.172;2023-11-21T05:36:02;138.50;;;31.77;;
53263;SDS011;39153;52.680;6.172;2023-11-21T05:38:28;184.38;;;59.33;;
53263;SDS011;39153;52.680;6.172;2023-11-21T05:40:54;125.63;;;29.98;;
53263;SDS011;39153;52.680;6.172;2023-11-21T05:43:20;131.90;;;29.67;;
53263;SDS011;39153;52.680;6.172;2023-11-21T05:45:46;121.85;;;29.77;;
53263;SDS011;39153;52.680;6.172;2023-11-21T05:48:11;181.15;;;58.90;;
53263;SDS011;39153;52.680;6.172;2023-11-21T05:50:37;128.82;;;30.65;;
53263;SDS011;39153;52.680;6.172;2023-11-21T05:53:03;135.35;;;29.70;;
53263;SDS011;39153;52.680;6.172;2023-11-21T05:55:29;149.02;;;32.50;;
53263;SDS011;39153;52.680;6.172;2023-11-21T05:57:56;139.23;;;31.98;;
53263;SDS011;39153;52.680;6.172;2023-11-21T06:00:21;146.10;;;53.95;;
53263;SDS011;39153;52.680;6.172;2023-11-21T06:02:53;128.40;;;29.15;;
53263;SDS011;39153;52.680;6.172;2023-11-21T06:05:20;144.30;;;30.30;;
53263;SDS011;39153;52.680;6.172;2023-11-21T06:07:51;118.47;;;30.65;;
53263;SDS011;39153;52.680;6.172;2023-11-21T06:10:19;140.60;;;30.98;;
53263;SDS011;39153;52.680;6.172;2023-11-21T06:12:45;128.30;;;30.63;;
53263;SDS011;39153;52.680;6.172;2023-11-21T06:15:11;156.57;;;33.67;;
53263;SDS011;39153;52.680;6.172;2023-11-21T06:17:38;144.60;;;32.17;;
53263;SDS011;39153;52.680;6.172;2023-11-21T06:20:05;192.05;;;33.67;;
53263;SDS011;39153;52.680;6.172;2023-11-21T06:22:39;186.77;;;59.85;;
53263;SDS011;39153;52.680;6.172;2023-11-21T06:25:06;155.52;;;31.98;;
53263;SDS011;39153;52.680;6.172;2023-11-21T06:27:33;159.30;;;33.47;;
53263;SDS011;39153;52.680;6.172;2023-11-21T06:29:59;166.20;;;33.58;;
53263;SDS011;39153;52.680;6.172;2023-11-21T06:32:25;180.60;;;35.22;;
53263;SDS011;39153;52.680;6.172;2023-11-21T06:34:51;206.90;;;34.28;;
53263;SDS011;39153;52.680;6.172;2023-11-21T06:37:19;180.40;;;34.17;;
53263;SDS011;39153;52.680;6.172;2023-11-21T06:39:50;180.35;;;35.15;;
53263;SDS011;39153;52.680;6.172;2023-11-21T06:42:19;162.48;;;35.53;;
53263;SDS011;39153;52.680;6.172;2023-11-21T06:44:45;204.88;;;37.85;;
53263;SDS011;39153;52.680;6.172;2023-11-21T06:47:12;190.55;;;36.42;;
53263;SDS011;39153;52.680;6.172;2023-11-21T06:49:37;202.60;;;37.03;;
53263;SDS011;39153;52.680;6.172;2023-11-21T06:52:03;195.38;;;36.63;;
53263;SDS011;39153;52.680;6.172;2023-11-21T06:54:30;198.60;;;35.03;;
53263;SDS011;39153;52.680;6.172;2023-11-21T06:56:56;281.08;;;38.67;;
53263;SDS011;39153;52.680;6.172;2023-11-21T06:59:23;228.70;;;36.72;;
53263;SDS011;39153;52.680;6.172;2023-11-21T07:01:49;295.38;;;73.00;;
53263;SDS011;39153;52.680;6.172;2023-11-21T07:04:15;163.45;;;33.28;;
53263;SDS011;39153;52.680;6.172;2023-11-21T07:06:41;193.82;;;32.70;;
53263;SDS011;39153;52.680;6.172;2023-11-21T07:09:07;201.88;;;32.30;;
53263;SDS011;39153;52.680;6.172;2023-11-21T07:11:33;202.30;;;34.25;;
53263;SDS011;39153;52.680;6.172;2023-11-21T07:13:59;177.02;;;33.70;;
53263;SDS011;39153;52.680;6.172;2023-11-21T07:16:31;218.18;;;59.67;;
53263;SDS011;39153;52.680;6.172;2023-11-21T07:18:59;182.00;;;32.80;;
53263;SDS011;39153;52.680;6.172;2023-11-21T07:21:25;188.40;;;32.92;;
53263;SDS011;39153;52.680;6.172;2023-11-21T07:23:51;201.18;;;59.05;;
53263;SDS011;39153;52.680;6.172;2023-11-21T07:26:17;160.23;;;31.88;;
53263;SDS011;39153;52.680;6.172;2023-11-21T07:28:42;167.13;;;32.00;;
53263;SDS011;39153;52.680;6.172;2023-11-21T07:31:08;180.50;;;31.23;;
53263;SDS011;39153;52.680;6.172;2023-11-21T07:33:33;207.20;;;60.30;;
53263;SDS011;39153;52.680;6.172;2023-11-21T07:35:59;153.52;;;31.15;;
53263;SDS011;39153;52.680;6.172;2023-11-21T07:38:25;190.10;;;57.97;;
53263;SDS011;39153;52.680;6.172;2023-11-21T07:40:51;139.80;;;29.88;;
53263;SDS011;39153;52.680;6.172;2023-11-21T07:43:16;149.15;;;30.17;;
53263;SDS011;39153;52.680;6.172;2023-11-21T07:45:45;161.15;;;29.90;;
53263;SDS011;39153;52.680;6.172;2023-11-21T07:48:11;163.45;;;32.35;;
53263;SDS011;39153;52.680;6.172;2023-11-21T07:50:36;196.77;;;59.22;;
53263;SDS011;39153;52.680;6.172;2023-11-21T07:53:02;168.05;;;29.48;;
53263;SDS011;39153;52.680;6.172;2023-11-21T07:55:30;121.90;;;27.88;;
53263;SDS011;39153;52.680;6.172;2023-11-21T07:57:57;144.18;;;29.02;;
53263;SDS011;39153;52.680;6.172;2023-11-21T08:00:22;119.22;;;26.38;;
53263;SDS011;39153;52.680;6.172;2023-11-21T08:02:49;119.10;;;27.75;;
53263;SDS011;39153;52.680;6.172;2023-11-21T08:05:15;97.22;;;23.98;;
53263;SDS011;39153;52.680;6.172;2023-11-21T08:07:41;98.38;;;23.75;;
53263;SDS011;39153;52.680;6.172;2023-11-21T08:10:07;82.78;;;20.48;;
53263;SDS011;39153;52.680;6.172;2023-11-21T08:12:35;71.18;;;19.42;;
53263;SDS011;39153;52.680;6.172;2023-11-21T08:15:01;61.88;;;17.92;;
53263;SDS011;39153;52.680;6.172;2023-11-21T08:17:28;62.17;;;18.60;;
53263;SDS011;39153;52.680;6.172;2023-11-21T08:19:54;63.25;;;18.77;;
53263;SDS011;39153;52.680;6.172;2023-11-21T08:22:20;55.30;;;17.25;;
53263;SDS011;39153;52.680;6.172;2023-11-21T08:24:46;59.95;;;17.05;;
53263;SDS011;39153;52.680;6.172;2023-11-21T08:27:12;56.30;;;16.70;;
53263;SDS011;39153;52.680;6.172;2023-11-21T08:29:41;55.50;;;17.35;;
53263;SDS011;39153;52.680;6.172;2023-11-21T08:32:07;58.90;;;17.08;;
53263;SDS011;39153;52.680;6.172;2023-11-21T08:34:32;50.85;;;15.15;;
53263;SDS011;39153;52.680;6.172;2023-11-21T08:36:58;48.65;;;14.45;;
53263;SDS011;39153;52.680;6.172;2023-11-21T08:39:24;51.97;;;15.45;;
53263;SDS011;39153;52.680;6.172;2023-11-21T08:41:51;44.55;;;22.95;;
53263;SDS011;39153;52.680;6.172;2023-11-21T08:44:17;49.85;;;14.60;;
53263;SDS011;39153;52.680;6.172;2023-11-21T08:46:43;51.67;;;14.20;;
53263;SDS011;39153;52.680;6.172;2023-11-21T08:49:12;51.88;;;24.10;;
53263;SDS011;39153;52.680;6.172;2023-11-21T08:51:39;43.85;;;14.68;;
53263;SDS011;39153;52.680;6.172;2023-11-21T08:54:05;44.78;;;25.63;;
53263;SDS011;39153;52.680;6.172;2023-11-21T08:56:33;57.35;;;18.10;;
53263;SDS011;39153;52.680;6.172;2023-11-21T08:58:59;46.45;;;15.50;;
53263;SDS011;39153;52.680;6.172;2023-11-21T09:01:27;47.97;;;16.13;;
53263;SDS011;39153;52.680;6.172;2023-11-21T09:03:53;51.47;;;16.63;;
53263;SDS011;39153;52.680;6.172;2023-11-21T09:06:19;53.33;;;17.20;;
53263;SDS011;39153;52.680;6.172;2023-11-21T09:08:45;56.10;;;29.33;;
53263;SDS011;39153;52.680;6.172;2023-11-21T09:11:10;52.53;;;17.10;;
53263;SDS011;39153;52.680;6.172;2023-11-21T09:13:36;51.45;;;17.75;;
53263;SDS011;39153;52.680;6.172;2023-11-21T09:16:02;55.03;;;17.23;;
53263;SDS011;39153;52.680;6.172;2023-11-21T09:18:28;51.70;;;16.65;;
53263;SDS011;39153;52.680;6.172;2023-11-21T09:20:54;57.63;;;18.27;;
53263;SDS011;39153;52.680;6.172;2023-11-21T09:23:19;51.67;;;17.58;;
53263;SDS011;39153;52.680;6.172;2023-11-21T09:25:45;58.28;;;16.98;;
53263;SDS011;39153;52.680;6.172;2023-11-21T09:28:13;47.40;;;16.90;;
53263;SDS011;39153;52.680;6.172;2023-11-21T09:30:38;54.33;;;17.40;;
53263;SDS011;39153;52.680;6.172;2023-11-21T09:33:04;56.10;;;17.98;;
53263;SDS011;39153;52.680;6.172;2023-11-21T09:35:33;56.75;;;18.02;;
53263;SDS011;39153;52.680;6.172;2023-11-21T09:37:59;52.90;;;17.17;;
53263;SDS011;39153;52.680;6.172;2023-11-21T09:40:26;46.65;;;15.32;;
53263;SDS011;39153;52.680;6.172;2023-11-21T09:42:54;48.53;;;15.68;;
53263;SDS011;39153;52.680;6.172;2023-11-21T09:45:26;50.40;;;14.52;;
53263;SDS011;39153;52.680;6.172;2023-11-21T09:47:53;52.08;;;15.07;;
53263;SDS011;39153;52.680;6.172;2023-11-21T09:50:23;50.85;;;15.50;;
53263;SDS011;39153;52.680;6.172;2023-11-21T09:52:55;43.35;;;14.00;;
53263;SDS011;39153;52.680;6.172;2023-11-21T09:55:22;38.28;;;12.57;;
53263;SDS011;39153;52.680;6.172;2023-11-21T09:57:52;41.22;;;12.38;;
53263;SDS011;39153;52.680;6.172;2023-11-21T10:00:20;46.58;;;21.98;;
53263;SDS011;39153;52.680;6.172;2023-11-21T10:02:49;32.78;;;11.77;;
53263;SDS011;39153;52.680;6.172;2023-11-21T10:05:15;43.33;;;11.95;;
53263;SDS011;39153;52.680;6.172;2023-11-21T10:07:43;39.22;;;11.23;;
53263;SDS011;39153;52.680;6.172;2023-11-21T10:10:10;38.38;;;12.10;;
53263;SDS011;39153;52.680;6.172;2023-11-21T10:12:37;39.60;;;11.10;;
53263;SDS011;39153;52.680;6.172;2023-11-21T10:15:03;35.67;;;11.77;;
53263;SDS011;39153;52.680;6.172;2023-11-21T10:17:35;42.78;;;12.20;;
53263;SDS011;39153;52.680;6.172;2023-11-21T10:20:08;48.28;;;20.05;;
53263;SDS011;39153;52.680;6.172;2023-11-21T10:22:41;45.45;;;12.07;;
53263;SDS011;39153;52.680;6.172;2023-11-21T10:25:08;39.30;;;11.02;;
53263;SDS011;39153;52.680;6.172;2023-11-21T10:27:35;39.83;;;11.02;;
53263;SDS011;39153;52.680;6.172;2023-11-21T10:30:04;38.28;;;12.05;;
53263;SDS011;39153;52.680;6.172;2023-11-21T10:32:30;59.15;;;24.58;;
53263;SDS011;39153;52.680;6.172;2023-11-21T10:34:59;81.07;;;32.53;;
53263;SDS011;39153;52.680;6.172;2023-11-21T10:37:35;60.20;;;19.08;;
53263;SDS011;39153;52.680;6.172;2023-11-21T10:40:10;77.30;;;18.98;;
53263;SDS011;39153;52.680;6.172;2023-11-21T10:42:37;73.13;;;20.55;;
53263;SDS011;39153;52.680;6.172;2023-11-21T10:45:10;94.70;;;39.25;;
53263;SDS011;39153;52.680;6.172;2023-11-21T10:47:39;70.80;;;21.00;;
53263;SDS011;39153;52.680;6.172;2023-11-21T10:50:09;70.15;;;20.20;;
53263;SDS011;39153;52.680;6.172;2023-11-21T10:52:39;71.32;;;21.17;;
53263;SDS011;39153;52.680;6.172;2023-11-21T10:55:18;62.40;;;18.98;;
53263;SDS011;39153;52.680;6.172;2023-11-21T10:57:51;58.13;;;19.40;;
53263;SDS011;39153;52.680;6.172;2023-11-21T11:00:18;57.97;;;19.65;;
53263;SDS011;39153;52.680;6.172;2023-11-21T11:02:51;56.08;;;20.35;;
53263;SDS011;39153;52.680;6.172;2023-11-21T11:05:20;51.25;;;18.38;;
53263;SDS011;39153;52.680;6.172;2023-11-21T11:07:48;44.03;;;18.08;;
53263;SDS011;39153;52.680;6.172;2023-11-21T11:10:19;55.72;;;18.95;;
53263;SDS011;39153;52.680;6.172;2023-11-21T11:12:51;54.45;;;30.48;;
53263;SDS011;39153;52.680;6.172;2023-11-21T11:15:17;49.45;;;17.83;;
53263;SDS011;39153;52.680;6.172;2023-11-21T11:17:44;44.47;;;17.08;;
53263;SDS011;39153;52.680;6.172;2023-11-21T11:20:12;37.30;;;16.88;;
53263;SDS011;39153;52.680;6.172;2023-11-21T11:28:18;41.47;;;18.10;;
53263;SDS011;39153;52.680;6.172;2023-11-21T11:33:48;38.22;;;17.75;;
53263;SDS011;39153;52.680;6.172;2023-11-21T11:36:18;38.45;;;17.10;;
53263;SDS011;39153;52.680;6.172;2023-11-21T11:38:51;40.95;;;17.10;;
53263;SDS011;39153;52.680;6.172;2023-11-21T11:41:26;32.13;;;14.88;;
53263;SDS011;39153;52.680;6.172;2023-11-21T11:43:57;36.08;;;15.55;;
53263;SDS011;39153;52.680;6.172;2023-11-21T11:46:39;36.08;;;16.15;;
53263;SDS011;39153;52.680;6.172;2023-11-21T11:49:07;38.30;;;17.02;;
53263;SDS011;39153;52.680;6.172;2023-11-21T11:51:33;42.67;;;16.83;;
53263;SDS011;39153;52.680;6.172;2023-11-21T11:54:01;37.50;;;26.63;;
53263;SDS011;39153;52.680;6.172;2023-11-21T11:58:56;37.10;;;16.88;;
53263;SDS011;39153;52.680;6.172;2023-11-21T12:01:24;39.63;;;25.85;;
53263;SDS011;39153;52.680;6.172;2023-11-21T12:06:36;38.67;;;15.82;;
53263;SDS011;39153;52.680;6.172;2023-11-21T12:09:02;41.78;;;16.63;;
53263;SDS011;39153;52.680;6.172;2023-11-21T12:11:31;37.90;;;16.80;;
53263;SDS011;39153;52.680;6.172;2023-11-21T12:13:58;38.97;;;15.95;;
53263;SDS011;39153;52.680;6.172;2023-11-21T12:16:25;39.85;;;17.52;;
53263;SDS011;39153;52.680;6.172;2023-11-21T12:18:53;39.13;;;18.80;;
53263;SDS011;39153;52.680;6.172;2023-11-21T12:21:19;32.75;;;16.05;;
53263;SDS011;39153;52.680;6.172;2023-11-21T12:23:46;29.55;;;16.08;;
53263;SDS011;39153;52.680;6.172;2023-11-21T12:26:13;30.13;;;14.45;;
53263;SDS011;39153;52.680;6.172;2023-11-21T12:28:39;28.35;;;14.82;;
53263;SDS011;39153;52.680;6.172;2023-11-21T12:31:05;24.83;;;13.90;;
53263;SDS011;39153;52.680;6.172;2023-11-21T12:33:32;21.98;;;12.38;;
53263;SDS011;39153;52.680;6.172;2023-11-21T12:35:58;22.73;;;12.38;;
53263;SDS011;39153;52.680;6.172;2023-11-21T12:38:24;19.20;;;10.90;;
53263;SDS011;39153;52.680;6.172;2023-11-21T12:40:50;18.98;;;10.75;;
53263;SDS011;39153;52.680;6.172;2023-11-21T12:43:16;19.60;;;10.00;;
53263;SDS011;39153;52.680;6.172;2023-11-21T12:45:43;18.55;;;10.65;;
53263;SDS011;39153;52.680;6.172;2023-11-21T12:48:09;18.50;;;10.18;;
53263;SDS011;39153;52.680;6.172;2023-11-21T12:50:36;25.30;;;10.93;;
53263;SDS011;39153;52.680;6.172;2023-11-21T12:53:04;18.20;;;10.15;;
53263;SDS011;39153;52.680;6.172;2023-11-21T12:55:35;17.83;;;10.95;;
53263;SDS011;39153;52.680;6.172;2023-11-21T12:58:02;16.98;;;10.07;;
53263;SDS011;39153;52.680;6.172;2023-11-21T13:00:37;16.40;;;10.05;;
53263;SDS011;39153;52.680;6.172;2023-11-21T13:03:08;18.00;;;10.18;;
53263;SDS011;39153;52.680;6.172;2023-11-21T13:05:38;16.75;;;9.60;;
53263;SDS011;39153;52.680;6.172;2023-11-21T13:08:05;15.20;;;13.23;;
53263;SDS011;39153;52.680;6.172;2023-11-21T13:10:33;16.27;;;9.25;;
53263;SDS011;39153;52.680;6.172;2023-11-21T13:13:02;15.50;;;9.07;;
53263;SDS011;39153;52.680;6.172;2023-11-21T13:15:47;19.27;;;9.75;;
53263;SDS011;39153;52.680;6.172;2023-11-21T13:18:14;16.08;;;14.27;;
53263;SDS011;39153;52.680;6.172;2023-11-21T13:20:41;15.30;;;8.98;;
53263;SDS011;39153;52.680;6.172;2023-11-21T13:23:08;15.90;;;8.40;;
53263;SDS011;39153;52.680;6.172;2023-11-21T13:25:41;13.73;;;8.20;;
53263;SDS011;39153;52.680;6.172;2023-11-21T13:28:14;14.02;;;8.30;;
53263;SDS011;39153;52.680;6.172;2023-11-21T13:30:40;15.02;;;7.90;;
53263;SDS011;39153;52.680;6.172;2023-11-21T13:33:07;14.05;;;8.50;;
53263;SDS011;39153;52.680;6.172;2023-11-21T13:35:36;13.88;;;8.35;;
53263;SDS011;39153;52.680;6.172;2023-11-21T13:38:07;12.45;;;8.00;;
53263;SDS011;39153;52.680;6.172;2023-11-21T13:40:35;14.55;;;8.52;;
53263;SDS011;39153;52.680;6.172;2023-11-21T13:43:10;15.10;;;12.82;;
53263;SDS011;39153;52.680;6.172;2023-11-21T13:45:38;18.80;;;9.55;;
53263;SDS011;39153;52.680;6.172;2023-11-21T13:48:08;14.25;;;12.63;;
53263;SDS011;39153;52.680;6.172;2023-11-21T13:50:45;12.48;;;7.70;;
53263;SDS011;39153;52.680;6.172;2023-11-21T13:53:23;13.75;;;11.32;;
53263;SDS011;39153;52.680;6.172;2023-11-21T13:55:50;12.95;;;7.38;;
53263;SDS011;39153;52.680;6.172;2023-11-21T13:58:19;14.25;;;11.10;;
53263;SDS011;39153;52.680;6.172;2023-11-21T14:00:57;14.15;;;11.07;;
53263;SDS011;39153;52.680;6.172;2023-11-21T14:03:23;11.60;;;7.30;;
53263;SDS011;39153;52.680;6.172;2023-11-21T14:05:57;15.00;;;11.90;;
53263;SDS011;39153;52.680;6.172;2023-11-21T14:08:26;13.43;;;7.68;;
53263;SDS011;39153;52.680;6.172;2023-11-21T14:10:54;13.60;;;7.15;;
53263;SDS011;39153;52.680;6.172;2023-11-21T14:13:25;12.05;;;10.80;;
53263;SDS011;39153;52.680;6.172;2023-11-21T14:15:53;12.48;;;6.88;;
53263;SDS011;39153;52.680;6.172;2023-11-21T14:18:24;14.23;;;10.98;;
53263;SDS011;39153;52.680;6.172;2023-11-21T14:20:56;13.95;;;7.10;;
53263;SDS011;39153;52.680;6.172;2023-11-21T14:23:22;12.50;;;10.43;;
53263;SDS011;39153;52.680;6.172;2023-11-21T14:25:48;13.30;;;7.20;;
53263;SDS011;39153;52.680;6.172;2023-11-21T14:28:17;12.43;;;6.68;;
53263;SDS011;39153;52.680;6.172;2023-11-21T14:30:44;14.70;;;6.43;;
53263;SDS011;39153;52.680;6.172;2023-11-21T14:33:11;12.43;;;6.57;;